Time;durP1;ratioP1;P1;durP2;ratioP2;P2;SDS_P1;SDS_P2;PMS_P1;PMS_P2;Temp;Humidity;BMP_temperature;BMP_pressure;BME280_temperature;BME280_humidity;BME280_pressure;Samples;Min_cycle;Max_cycle;Signal;HPM_P1;HPM_P2
2023/03/24 00:02:07;;;;;;;35.80;27.60;;;12.80;98.90;;;;;;5096650;28;20425;-84
2023/03/24 00:04:34;;;;;;;31.33;25.67;;;12.70;99.10;;;;;;5096836;28;20917;-85
2023/03/24 00:07:02;;;;;;;36.43;28.10;;;12.80;99.10;;;;;;5095079;28;20432;-88
2023/03/24 00:09:31;;;;;;;34.07;26.93;;;12.80;99.00;;;;;;5094974;28;20486;-84
2023/03/24 00:11:57;;;;;;;39.50;26.10;;;12.90;99.00;;;;;;5096294;28;20429;-84
2023/03/24 00:14:24;;;;;;;36.10;28.00;;;12.80;99.10;;;;;;5096135;28;20455;-84
2023/03/24 00:16:51;;;;;;;38.73;29.57;;;12.80;99.10;;;;;;5096137;28;20852;-84
2023/03/24 00:19:18;;;;;;;37.40;28.47;;;12.80;99.10;;;;;;5096124;28;20440;-87
2023/03/24 00:21:45;;;;;;;36.33;26.37;;;12.80;99.30;;;;;;5094947;28;20452;-84
2023/03/24 00:24:11;;;;;;;32.83;25.00;;;12.80;99.60;;;;;;5094792;28;20799;-87
2023/03/24 00:26:39;;;;;;;38.90;28.70;;;12.70;99.70;;;;;;5094948;28;20504;-87
2023/03/24 00:29:08;;;;;;;38.20;28.47;;;12.70;99.70;;;;;;5095956;28;20405;-84
2023/03/24 00:31:38;;;;;;;37.50;27.73;;;12.60;99.90;;;;;;5094723;28;20929;-84
2023/03/24 00:34:09;;;;;;;37.90;27.90;;;12.60;99.90;;;;;;5095853;28;20405;-83
2023/03/24 00:36:35;;;;;;;37.50;26.93;;;12.60;99.90;;;;;;5096317;28;20440;-83
2023/03/24 00:39:03;;;;;;;38.63;29.77;;;12.60;99.90;;;;;;5094503;28;20476;-84
2023/03/24 00:41:30;;;;;;;35.20;27.80;;;12.50;99.90;;;;;;5096053;28;20440;-87
2023/03/24 00:43:58;;;;;;;36.83;28.20;;;12.50;99.90;;;;;;5095685;28;20808;-87
2023/03/24 00:46:28;;;;;;;39.95;29.27;;;12.50;99.90;;;;;;5095751;28;20866;-84
2023/03/24 00:49:06;;;;;;;38.60;29.23;;;12.60;99.90;;;;;;5097644;28;20204;-83
2023/03/24 00:51:35;;;;;;;36.73;29.70;;;12.60;99.90;;;;;;5094432;28;20196;-88
2023/03/24 00:54:01;;;;;;;39.40;29.52;;;12.50;99.90;;;;;;5095579;28;20543;-87
2023/03/24 00:56:30;;;;;;;36.70;27.10;;;12.50;99.90;;;;;;5095833;28;20220;-88
2023/03/24 00:59:01;;;;;;;41.85;30.38;;;12.50;99.90;;;;;;5094125;28;20425;-83
2023/03/24 01:01:28;;;;;;;42.08;28.30;;;12.50;99.90;;;;;;5095854;28;20192;-84
2023/03/24 01:03:55;;;;;;;39.55;29.35;;;12.30;99.90;;;;;;5095258;28;20560;-85
2023/03/24 01:06:23;;;;;;;36.60;28.92;;;12.30;99.90;;;;;;5094068;28;20207;-88
2023/03/24 01:08:52;;;;;;;40.35;27.70;;;12.20;99.90;;;;;;5093818;28;20209;-83
2023/03/24 01:11:24;;;;;;;38.03;29.10;;;12.20;99.90;;;;;;5094077;28;20687;-85
2023/03/24 01:13:52;;;;;;;40.45;29.67;;;12.10;99.90;;;;;;5093551;28;20292;-84
2023/03/24 01:16:18;;;;;;;37.67;28.80;;;12.00;99.90;;;;;;5095451;28;20204;-84
2023/03/24 01:18:44;;;;;;;40.40;30.83;;;12.00;99.90;;;;;;5094953;28;20202;-84
2023/03/24 01:21:11;;;;;;;46.15;30.13;;;11.90;99.90;;;;;;5094949;28;20223;-87
2023/03/24 01:23:40;;;;;;;40.75;31.42;;;11.90;99.90;;;;;;5094014;28;20669;-84
2023/03/24 01:26:08;;;;;;;35.42;27.48;;;11.90;99.90;;;;;;5093762;28;20180;-84
2023/03/24 01:28:39;;;;;;;36.95;30.13;;;11.70;99.90;;;;;;5093604;28;20200;-87
2023/03/24 01:31:07;;;;;;;42.10;30.60;;;11.70;99.90;;;;;;5093737;28;20599;-84
2023/03/24 01:33:34;;;;;;;38.47;30.55;;;11.70;99.90;;;;;;5093493;28;20566;-83
2023/03/24 01:36:00;;;;;;;38.20;30.13;;;11.70;99.90;;;;;;5093432;28;20240;-88
2023/03/24 01:38:26;;;;;;;43.50;31.13;;;11.70;99.90;;;;;;5095114;28;20196;-88
2023/03/24 01:40:54;;;;;;;46.40;32.13;;;11.60;99.90;;;;;;5095732;28;20168;-88
2023/03/24 01:43:23;;;;;;;42.78;30.65;;;11.60;99.90;;;;;;5094446;28;20447;-87
2023/03/24 01:46:00;;;;;;;38.60;30.00;;;11.50;99.90;;;;;;5094467;28;20179;-83
2023/03/24 01:48:55;;;;;;;37.50;28.75;;;11.50;99.90;;;;;;5094605;28;20196;-84
2023/03/24 01:51:25;;;;;;;46.97;31.67;;;11.40;99.90;;;;;;5089359;28;20197;-84
2023/03/24 01:54:02;;;;;;;39.40;29.88;;;11.30;99.90;;;;;;5093037;28;20249;-83
2023/03/24 01:56:32;;;;;;;38.28;28.30;;;11.30;99.90;;;;;;5094700;28;20313;-88
2023/03/24 01:59:04;;;;;;;39.50;29.40;;;11.30;99.90;;;;;;5094361;28;20164;-87
2023/03/24 02:01:30;;;;;;;38.78;30.55;;;11.20;99.90;;;;;;5094730;28;20179;-84
2023/03/24 02:03:58;;;;;;;42.75;31.08;;;11.20;99.90;;;;;;5094190;28;20641;-87
2023/03/24 02:06:26;;;;;;;41.25;30.85;;;11.20;99.90;;;;;;5093134;28;20267;-85
2023/03/24 02:08:58;;;;;;;43.88;30.60;;;11.20;99.90;;;;;;5092685;28;20199;-83
2023/03/24 02:11:27;;;;;;;37.78;30.65;;;11.10;99.90;;;;;;5092809;28;20229;-84
2023/03/24 02:13:53;;;;;;;43.42;32.97;;;11.10;99.90;;;;;;5092572;28;20735;-88
2023/03/24 02:16:40;;;;;;;38.70;29.60;;;11.10;99.90;;;;;;5094403;28;20208;-87
2023/03/24 02:19:13;;;;;;;42.80;30.60;;;11.00;99.90;;;;;;5092750;28;20226;-84
2023/03/24 02:22:18;;;;;;;38.25;29.13;;;10.90;99.90;;;;;;5092279;28;20187;-84
2023/03/24 02:24:59;;;;;;;40.83;30.05;;;10.90;99.90;;;;;;5070373;28;20184;-88
2023/03/24 02:28:02;;;;;;;44.42;30.85;;;10.80;99.90;;;;;;5092835;28;20211;-88
2023/03/24 02:30:49;;;;;;;44.60;31.13;;;10.80;99.90;;;;;;5096065;28;20211;-87
2023/03/24 02:33:33;;;;;;;41.40;31.85;;;10.80;99.90;;;;;;5094329;28;20679;-83
2023/03/24 02:36:15;;;;;;;37.63;30.38;;;10.70;99.90;;;;;;5096520;28;20614;-84
2023/03/24 02:39:19;;;;;;;40.67;30.55;;;10.70;99.90;;;;;;5093057;28;20325;-83
2023/03/24 02:42:27;;;;;;;38.65;28.75;;;10.70;99.90;;;;;;5092644;28;20180;-84
2023/03/24 02:45:38;;;;;;;44.35;31.40;;;10.60;99.90;;;;;;5076022;28;20679;-84
2023/03/24 02:48:21;;;;;;;44.20;31.35;;;10.60;99.90;;;;;;5070107;28;20660;-87
2023/03/24 02:51:14;;;;;;;41.05;31.13;;;10.70;99.90;;;;;;5092564;28;20641;-88
2023/03/24 02:54:06;;;;;;;37.22;30.10;;;10.70;99.90;;;;;;5092368;28;20196;-83
2023/03/24 02:56:36;;;;;;;41.50;30.77;;;10.70;99.90;;;;;;5093909;28;20212;-87
2023/03/24 02:59:03;;;;;;;41.72;32.40;;;10.70;99.90;;;;;;5092392;28;20256;-83
2023/03/24 03:01:40;;;;;;;39.97;31.88;;;10.70;99.90;;;;;;5094660;28;20184;-82
2023/03/24 03:04:13;;;;;;;39.30;30.88;;;10.70;99.90;;;;;;5096384;28;20185;-84
2023/03/24 03:06:42;;;;;;;44.45;32.45;;;10.70;99.90;;;;;;5095057;28;20558;-83
2023/03/24 03:09:18;;;;;;;40.17;31.45;;;10.70;99.90;;;;;;5095978;28;20171;-85
2023/03/24 03:11:48;;;;;;;41.35;30.00;;;10.70;99.90;;;;;;5095591;28;20256;-84
2023/03/24 03:14:26;;;;;;;37.95;30.00;;;10.80;99.90;;;;;;5093382;28;20231;-88
2023/03/24 03:17:05;;;;;;;41.85;30.80;;;10.70;99.90;;;;;;5092535;28;20211;-88
2023/03/24 03:19:40;;;;;;;37.17;30.77;;;10.70;99.90;;;;;;5093436;28;20652;-87
2023/03/24 03:22:11;;;;;;;43.55;30.73;;;10.80;99.90;;;;;;5092300;28;20195;-84
2023/03/24 03:24:40;;;;;;;42.88;31.77;;;10.80;99.90;;;;;;5093404;28;20192;-88
2023/03/24 03:27:20;;;;;;;38.30;28.63;;;10.70;99.90;;;;;;5093413;28;20667;-88
2023/03/24 03:29:53;;;;;;;40.67;31.60;;;10.70;99.90;;;;;;5092015;28;20530;-84
2023/03/24 03:32:27;;;;;;;37.38;29.98;;;10.60;99.90;;;;;;5092096;28;20204;-84
2023/03/24 03:35:17;;;;;;;39.25;30.83;;;10.60;99.90;;;;;;5094091;28;20242;-84
2023/03/24 03:38:17;;;;;;;40.95;28.92;;;10.60;99.90;;;;;;5096980;28;20193;-84
2023/03/24 03:40:59;;;;;;;43.25;31.55;;;10.60;99.90;;;;;;5095492;28;20177;-83
2023/03/24 03:43:26;;;;;;;37.08;29.98;;;10.60;99.90;;;;;;5095424;28;20215;-84
2023/03/24 03:45:53;;;;;;;36.00;29.00;;;10.50;99.90;;;;;;5095486;28;20318;-87
2023/03/24 03:48:20;;;;;;;44.35;31.10;;;10.40;99.90;;;;;;5095747;28;20601;-87
2023/03/24 03:50:47;;;;;;;40.15;28.60;;;10.30;99.90;;;;;;5095590;28;20183;-87
2023/03/24 03:53:15;;;;;;;43.15;30.58;;;10.40;99.90;;;;;;5095441;28;20200;-87
2023/03/24 03:55:41;;;;;;;41.47;31.30;;;10.40;99.90;;;;;;5095358;28;20325;-87
2023/03/24 03:58:07;;;;;;;42.35;31.73;;;10.30;99.90;;;;;;5096455;28;20192;-84
2023/03/24 04:00:34;;;;;;;42.73;30.67;;;10.30;99.90;;;;;;5095392;28;20187;-88
2023/03/24 04:03:40;;;;;;;40.40;30.20;;;10.20;99.90;;;;;;5096376;28;20945;-84
2023/03/24 04:06:39;;;;;;;42.03;29.80;;;10.10;99.90;;;;;;5085378;28;20653;-87
2023/03/24 04:09:33;;;;;;;40.53;29.50;;;10.00;99.90;;;;;;5095900;28;20207;-86
2023/03/24 04:12:14;;;;;;;42.33;30.60;;;9.90;99.90;;;;;;5096389;28;20201;-84
2023/03/24 04:15:08;;;;;;;38.15;28.80;;;9.90;99.90;;;;;;5096233;28;20224;-88
2023/03/24 04:17:40;;;;;;;43.53;29.75;;;10.00;99.90;;;;;;5088083;28;20848;-87
2023/03/24 04:20:23;;;;;;;42.67;29.52;;;10.00;99.90;;;;;;5096163;28;20171;-83
2023/03/24 04:23:01;;;;;;;40.00;30.70;;;10.00;99.90;;;;;;5096141;28;20196;-83
2023/03/24 04:25:48;;;;;;;38.40;29.25;;;10.00;99.90;;;;;;5095032;28;20175;-88
2023/03/24 04:28:40;;;;;;;39.67;29.63;;;9.90;99.90;;;;;;5094664;28;20201;-82
2023/03/24 04:31:52;;;;;;;44.03;29.88;;;9.90;99.90;;;;;;5092625;28;20185;-83
2023/03/24 04:34:28;;;;;;;42.13;30.63;;;10.00;99.90;;;;;;5091100;28;20195;-83
2023/03/24 04:37:05;;;;;;;42.60;30.05;;;10.00;99.90;;;;;;5096138;28;20587;-83
2023/03/24 04:39:37;;;;;;;44.75;29.52;;;10.00;99.90;;;;;;5095643;28;20192;-82
2023/03/24 04:42:06;;;;;;;54.67;33.83;;;9.90;99.90;;;;;;5095775;28;20246;-88
2023/03/24 04:44:32;;;;;;;39.47;30.30;;;9.80;99.90;;;;;;5093987;28;20168;-84
2023/03/24 04:47:00;;;;;;;54.95;36.67;;;9.80;99.90;;;;;;5094250;28;20247;-86
2023/03/24 04:49:26;;;;;;;40.47;30.92;;;9.90;99.90;;;;;;5095617;28;20572;-87
2023/03/24 04:51:53;;;;;;;41.28;30.23;;;9.90;99.90;;;;;;5094448;28;20611;-83
2023/03/24 04:54:20;;;;;;;41.20;28.85;;;10.00;99.90;;;;;;5094271;28;20181;-84
2023/03/24 04:56:51;;;;;;;47.80;30.08;;;10.00;99.90;;;;;;5094305;28;20219;-84
2023/03/24 04:59:17;;;;;;;36.58;28.58;;;10.10;99.90;;;;;;5094015;28;20684;-88
2023/03/24 05:01:50;;;;;;;39.97;28.90;;;10.20;99.90;;;;;;5095796;28;20204;-88
2023/03/24 05:04:22;;;;;;;38.35;30.15;;;10.10;99.90;;;;;;5096125;28;20185;-83
2023/03/24 05:06:51;;;;;;;38.90;29.15;;;10.10;99.90;;;;;;5096986;28;20172;-88
2023/03/24 05:09:20;;;;;;;43.35;31.10;;;10.10;99.90;;;;;;5095363;28;20627;-88
2023/03/24 05:11:46;;;;;;;40.40;31.00;;;10.10;99.90;;;;;;5094146;28;20597;-83
2023/03/24 05:14:12;;;;;;;42.57;31.20;;;10.10;99.90;;;;;;5093712;28;20232;-88
2023/03/24 05:16:37;;;;;;;40.60;31.17;;;10.10;99.90;;;;;;5095572;28;20468;-88
2023/03/24 05:19:03;;;;;;;37.43;29.63;;;10.20;99.90;;;;;;5093849;28;20409;-83
2023/03/24 05:21:32;;;;;;;40.40;29.90;;;10.20;99.90;;;;;;5094089;28;20183;-87
2023/03/24 05:23:58;;;;;;;41.95;31.38;;;10.20;99.90;;;;;;5094933;28;20421;-83
2023/03/24 05:26:25;;;;;;;37.30;29.13;;;10.20;99.90;;;;;;5095313;28;20640;-83
2023/03/24 05:28:51;;;;;;;37.78;29.23;;;10.10;99.90;;;;;;5094686;28;20230;-84
2023/03/24 05:31:17;;;;;;;36.58;27.70;;;10.10;99.90;;;;;;5095289;28;20580;-89
2023/03/24 05:33:43;;;;;;;41.33;29.73;;;10.00;99.90;;;;;;5093859;28;20235;-88
2023/03/24 05:36:09;;;;;;;36.53;28.83;;;10.00;99.90;;;;;;5095692;28;20216;-88
2023/03/24 05:38:35;;;;;;;44.55;30.77;;;10.00;99.90;;;;;;5096931;28;20242;-83
2023/03/24 05:41:01;;;;;;;42.43;30.27;;;10.00;99.90;;;;;;5094245;28;20625;-88
2023/03/24 05:43:27;;;;;;;34.65;27.65;;;10.00;99.90;;;;;;5093446;28;20800;-85
2023/03/24 05:45:55;;;;;;;39.80;29.80;;;10.00;99.90;;;;;;5093232;28;20180;-89
2023/03/24 05:48:21;;;;;;;41.25;30.80;;;10.00;99.90;;;;;;5094453;28;20188;-89
2023/03/24 05:50:47;;;;;;;42.13;30.98;;;10.10;99.90;;;;;;5093207;28;20173;-88
2023/03/24 05:53:13;;;;;;;46.10;31.30;;;10.20;99.90;;;;;;5093010;28;20196;-88
2023/03/24 05:55:39;;;;;;;51.83;34.50;;;10.20;99.90;;;;;;5094354;28;20256;-85
2023/03/24 05:58:05;;;;;;;44.20;32.23;;;10.30;99.90;;;;;;5093576;28;20691;-85
2023/03/24 06:00:32;;;;;;;41.13;29.05;;;10.30;99.90;;;;;;5094528;28;20172;-83
2023/03/24 06:02:58;;;;;;;39.08;27.83;;;10.20;99.90;;;;;;5092366;28;20297;-85
2023/03/24 06:05:24;;;;;;;41.42;27.58;;;10.20;99.90;;;;;;5093268;28;20713;-89
2023/03/24 06:07:50;;;;;;;44.35;30.20;;;10.20;99.90;;;;;;5093296;28;20299;-84
2023/03/24 06:10:17;;;;;;;40.97;28.13;;;10.20;99.90;;;;;;5093109;28;20211;-84
2023/03/24 06:12:44;;;;;;;37.45;28.30;;;10.10;99.90;;;;;;5094208;28;20453;-85
2023/03/24 06:15:10;;;;;;;37.90;26.38;;;10.20;99.90;;;;;;5092836;28;20243;-84
2023/03/24 06:17:37;;;;;;;40.03;28.60;;;10.20;99.90;;;;;;5092673;28;20229;-90
2023/03/24 06:20:10;;;;;;;35.80;27.10;;;10.30;99.90;;;;;;5090233;28;20172;-84
2023/03/24 06:22:36;;;;;;;33.72;25.25;;;10.40;99.90;;;;;;5077373;28;20240;-88
2023/03/24 06:25:03;;;;;;;37.37;26.20;;;10.50;99.90;;;;;;5077287;28;20184;-84
2023/03/24 06:27:29;;;;;;;32.90;25.30;;;10.70;99.90;;;;;;5084955;28;20200;-88
2023/03/24 06:29:58;;;;;;;32.30;23.37;;;10.80;99.90;;;;;;5087538;28;20184;-89
2023/03/24 06:32:25;;;;;;;33.72;26.23;;;11.00;99.90;;;;;;5087013;28;20211;-85
2023/03/24 06:34:50;;;;;;;37.30;28.02;;;11.00;99.90;;;;;;5088069;28;20305;-84
2023/03/24 06:37:16;;;;;;;35.13;24.60;;;11.10;99.90;;;;;;5087890;28;20627;-88
2023/03/24 06:39:42;;;;;;;34.85;25.05;;;11.10;99.90;;;;;;5089121;28;20668;-85
2023/03/24 06:42:08;;;;;;;31.27;21.50;;;11.30;99.90;;;;;;5089663;28;20200;-84
2023/03/24 06:44:33;;;;;;;36.60;24.83;;;11.30;99.90;;;;;;5089581;28;20544;-89
2023/03/24 06:46:59;;;;;;;35.20;23.67;;;11.50;99.90;;;;;;5085157;28;20254;-88
2023/03/24 06:49:25;;;;;;;30.53;24.20;;;11.70;99.90;;;;;;5085402;28;20208;-87
2023/03/24 06:51:51;;;;;;;32.17;24.50;;;11.80;99.90;;;;;;5085262;28;20200;-88
2023/03/24 06:54:17;;;;;;;32.78;23.60;;;12.00;99.90;;;;;;5078753;28;20192;-87
2023/03/24 06:56:43;;;;;;;30.93;21.87;;;12.10;99.90;;;;;;5079554;28;20204;-89
2023/03/24 06:59:09;;;;;;;37.80;24.50;;;12.20;99.90;;;;;;5079487;28;20516;-84
2023/03/24 07:01:36;;;;;;;30.27;23.17;;;12.40;99.90;;;;;;5087993;28;20512;-83
2023/03/24 07:04:03;;;;;;;27.10;20.87;;;12.50;99.90;;;;;;5082082;28;20433;-87
2023/03/24 07:06:29;;;;;;;29.13;22.57;;;12.70;99.90;;;;;;5081485;28;20443;-83
2023/03/24 07:08:56;;;;;;;30.10;22.67;;;12.80;99.90;;;;;;5083236;28;20460;-84
2023/03/24 07:11:22;;;;;;;31.10;22.53;;;12.90;99.90;;;;;;5089879;28;20283;-88
2023/03/24 07:13:47;;;;;;;27.50;21.90;;;13.00;99.90;;;;;;5089748;28;21032;-84
2023/03/24 07:16:13;;;;;;;30.10;23.70;;;13.20;99.90;;;;;;5094507;28;20614;-84
2023/03/24 07:18:39;;;;;;;29.10;22.80;;;13.30;99.90;;;;;;5085488;28;20609;-84
2023/03/24 07:21:05;;;;;;;28.53;22.57;;;13.40;99.90;;;;;;5091789;28;20260;-84
2023/03/24 07:23:31;;;;;;;29.10;23.50;;;13.60;99.90;;;;;;5095270;28;20570;-85
2023/03/24 07:25:57;;;;;;;27.20;23.00;;;13.80;99.90;;;;;;5091294;28;20455;-84
2023/03/24 07:28:23;;;;;;;29.30;23.40;;;13.90;99.90;;;;;;5092825;28;20476;-85
2023/03/24 07:30:49;;;;;;;29.60;22.23;;;14.00;99.90;;;;;;5092893;28;20191;-88
2023/03/24 07:33:15;;;;;;;27.83;22.13;;;14.20;99.90;;;;;;5088266;28;20615;-88
2023/03/24 07:35:41;;;;;;;28.10;22.10;;;14.40;99.90;;;;;;5090382;28;20472;-90
2023/03/24 07:38:09;;;;;;;27.60;22.50;;;14.60;99.90;;;;;;5090177;28;20451;-84
2023/03/24 07:40:34;;;;;;;30.53;22.67;;;14.70;99.90;;;;;;5090258;28;20429;-89
2023/03/24 07:43:04;;;;;;;28.00;21.90;;;14.90;99.90;;;;;;5093153;28;20586;-88
2023/03/24 07:45:30;;;;;;;28.27;22.03;;;15.00;99.90;;;;;;5088600;28;20428;-87
2023/03/24 07:48:00;;;;;;;28.43;20.40;;;15.10;99.90;;;;;;5089665;28;20476;-85
2023/03/24 07:50:27;;;;;;;30.33;22.90;;;15.30;99.90;;;;;;5089338;28;20501;-88
2023/03/24 07:52:53;;;;;;;24.60;21.33;;;15.60;99.90;;;;;;5088247;28;20440;-85
2023/03/24 07:55:19;;;;;;;25.20;21.73;;;15.70;99.90;;;;;;5088952;28;20529;-88
2023/03/24 07:57:47;;;;;;;28.77;23.40;;;15.90;99.90;;;;;;5087379;28;20529;-88
2023/03/24 08:00:16;;;;;;;25.03;21.20;;;16.10;99.90;;;;;;5091642;28;20420;-89
2023/03/24 08:02:44;;;;;;;24.63;20.43;;;16.30;99.90;;;;;;5092913;28;20927;-88
2023/03/24 08:05:13;;;;;;;25.53;21.47;;;16.40;99.90;;;;;;5089079;28;20425;-84
2023/03/24 08:07:44;;;;;;;24.20;19.90;;;16.60;99.90;;;;;;5090723;28;20441;-91
2023/03/24 08:10:12;;;;;;;23.80;20.23;;;16.80;99.90;;;;;;5094086;28;20506;-91
2023/03/24 08:12:38;;;;;;;22.40;19.23;;;17.00;99.90;;;;;;5095639;28;20428;-84
2023/03/24 08:15:08;;;;;;;23.60;20.23;;;17.10;99.90;;;;;;5095389;28;20937;-88
2023/03/24 08:17:35;;;;;;;24.03;19.60;;;17.20;99.90;;;;;;5093225;28;21003;-84
2023/03/24 08:20:11;;;;;;;23.67;18.33;;;17.40;99.90;;;;;;5093445;28;20413;-89
2023/03/24 08:22:40;;;;;;;25.20;19.67;;;17.70;99.90;;;;;;5084368;28;20800;-86
2023/03/24 08:25:07;;;;;;;23.70;19.40;;;17.90;99.90;;;;;;5079513;28;20439;-84
2023/03/24 08:27:32;;;;;;;23.47;19.20;;;18.30;99.90;;;;;;5085851;28;20458;-84
2023/03/24 08:29:58;;;;;;;19.97;17.90;;;19.00;99.90;;;;;;5089206;28;20902;-85
2023/03/24 08:32:24;;;;;;;20.03;16.20;;;19.80;99.90;;;;;;5089565;28;20265;-90
2023/03/24 08:34:49;;;;;;;20.10;17.73;;;20.70;99.90;;;;;;5082886;28;20607;-91
2023/03/24 08:37:15;;;;;;;21.47;18.30;;;21.50;99.90;;;;;;5081565;28;20213;-86
2023/03/24 08:39:41;;;;;;;18.93;17.00;;;22.50;99.60;;;;;;5101986;28;20208;-86
2023/03/24 08:42:07;;;;;;;19.30;16.87;;;23.20;96.90;;;;;;5087234;28;20276;-86
2023/03/24 08:44:32;;;;;;;19.90;16.60;;;23.80;95.70;;;;;;5092326;28;20179;-90
2023/03/24 08:47:00;;;;;;;18.93;16.93;;;24.40;93.80;;;;;;5090998;28;20207;-86
2023/03/24 08:49:25;;;;;;;16.50;14.77;;;25.20;92.30;;;;;;5088651;28;20184;-88
2023/03/24 08:51:51;;;;;;;17.37;15.57;;;25.70;91.20;;;;;;5091218;28;20820;-86
2023/03/24 08:54:17;;;;;;;19.97;16.33;;;26.10;89.30;;;;;;5095527;28;20183;-86
2023/03/24 08:56:42;;;;;;;18.67;16.67;;;26.10;88.10;;;;;;5103848;28;20200;-92
2023/03/24 08:59:08;;;;;;;17.20;15.50;;;26.20;87.40;;;;;;5088811;28;20222;-86
2023/03/24 09:01:34;;;;;;;17.80;15.60;;;26.20;86.20;;;;;;5095566;28;20181;-93
2023/03/24 09:04:00;;;;;;;18.20;16.30;;;26.30;86.40;;;;;;5087210;28;20195;-86
2023/03/24 09:06:26;;;;;;;15.57;14.07;;;26.40;86.30;;;;;;5086010;28;20180;-89
2023/03/24 09:08:52;;;;;;;16.80;14.53;;;26.40;84.70;;;;;;5086375;28;20196;-87
2023/03/24 09:11:20;;;;;;;16.37;13.97;;;26.30;83.70;;;;;;5083979;28;20425;-87
2023/03/24 09:13:47;;;;;;;15.80;14.20;;;26.30;81.80;;;;;;5091666;28;20505;-91
2023/03/24 09:16:14;;;;;;;15.07;13.57;;;26.30;82.70;;;;;;5077405;28;20472;-86
2023/03/24 09:18:40;;;;;;;13.50;12.13;;;26.50;83.40;;;;;;5102624;28;20452;-87
2023/03/24 09:21:07;;;;;;;15.80;12.80;;;26.70;80.60;;;;;;5071134;28;20421;-88
2023/03/24 09:23:33;;;;;;;12.90;11.60;;;26.60;80.00;;;;;;5084015;28;20446;-86
2023/03/24 09:26:00;;;;;;;43.13;35.13;;;26.10;79.50;;;;;;5085506;28;21025;-86
2023/03/24 09:28:26;;;;;;;14.07;12.67;;;25.60;79.90;;;;;;5078830;28;20477;-85
2023/03/24 09:31:00;;;;;;;12.93;10.73;;;25.10;81.80;;;;;;5082322;28;20919;-89
2023/03/24 09:33:28;;;;;;;12.03;10.93;;;25.20;81.80;;;;;;5070472;28;20937;-88
2023/03/24 09:35:59;;;;;;;14.20;12.70;;;25.30;80.10;;;;;;5087347;28;20941;-90
2023/03/24 09:38:25;;;;;;;12.60;11.40;;;25.30;81.30;;;;;;5078991;28;20459;-89
2023/03/24 09:40:59;;;;;;;11.97;10.80;;;25.50;79.90;;;;;;5089835;28;20429;-86
2023/03/24 09:43:57;;;;;;;11.67;10.63;;;25.70;79.30;;;;;;5084656;28;20223;-90
2023/03/24 09:46:33;;;;;;;11.73;9.57;;;26.10;78.30;;;;;;5087725;27;20440;-90
2023/03/24 09:48:58;;;;;;;12.07;10.83;;;26.50;78.00;;;;;;5090757;28;20921;-87
2023/03/24 09:51:33;;;;;;;11.53;9.13;;;26.50;75.90;;;;;;5091211;28;20443;-88
2023/03/24 09:54:21;;;;;;;10.67;9.57;;;26.10;77.30;;;;;;5089409;28;20555;-85
2023/03/24 09:56:48;;;;;;;10.80;9.80;;;25.60;77.40;;;;;;5089021;28;21001;-91
2023/03/24 09:59:30;;;;;;;11.33;10.33;;;25.90;77.60;;;;;;5097691;28;20428;-85
2023/03/24 10:01:57;;;;;;;10.73;9.63;;;26.10;77.30;;;;;;5090076;28;20808;-85
2023/03/24 10:04:26;;;;;;;10.00;8.90;;;26.00;78.10;;;;;;5089421;28;20506;-85
2023/03/24 10:07:06;;;;;;;10.43;8.73;;;25.70;77.50;;;;;;5092130;28;20456;-91
2023/03/24 10:09:34;;;;;;;9.67;8.73;;;25.80;77.90;;;;;;5091788;28;20504;-89
2023/03/24 10:12:14;;;;;;;8.10;7.40;;;26.10;77.40;;;;;;5105159;28;20861;-86
2023/03/24 10:15:04;;;;;;;8.77;7.87;;;26.10;75.40;;;;;;5108808;28;20517;-91
2023/03/24 10:17:49;;;;;;;8.70;7.07;;;25.50;76.00;;;;;;5089511;28;20461;-90
2023/03/24 10:20:31;;;;;;;8.27;7.47;;;25.10;75.30;;;;;;5085622;28;20440;-90
2023/03/24 10:23:14;;;;;;;6.93;6.23;;;25.00;75.80;;;;;;5087246;28;20481;-91
2023/03/24 10:25:55;;;;;;;9.27;8.37;;;24.70;76.10;;;;;;5089505;28;20433;-87
2023/03/24 10:28:27;;;;;;;9.47;8.20;;;24.60;76.40;;;;;;5071583;28;20515;-86
2023/03/24 10:30:58;;;;;;;10.40;7.87;;;24.50;76.60;;;;;;5090625;28;20431;-85
2023/03/24 10:33:24;;;;;;;10.90;7.77;;;24.40;76.90;;;;;;5090349;28;20536;-87
2023/03/24 10:36:12;;;;;;;8.73;7.90;;;24.30;77.50;;;;;;5095377;28;20563;-89
2023/03/24 10:38:38;;;;;;;7.60;6.90;;;24.20;77.80;;;;;;5090001;28;20480;-88
2023/03/24 10:41:04;;;;;;;7.90;6.93;;;24.00;77.50;;;;;;5087617;28;20535;-85
2023/03/24 10:43:31;;;;;;;9.93;7.77;;;23.80;77.60;;;;;;5089606;28;20201;-87
2023/03/24 10:45:58;;;;;;;7.17;6.57;;;23.90;78.30;;;;;;5076798;28;20421;-91
2023/03/24 10:48:44;;;;;;;20.80;16.50;;;24.00;77.20;;;;;;5080166;28;20836;-86
2023/03/24 10:51:25;;;;;;;8.47;7.60;;;24.10;76.90;;;;;;5093006;28;20802;-91
2023/03/24 10:54:14;;;;;;;10.80;6.47;;;24.30;77.30;;;;;;5092351;28;20459;-88
2023/03/24 10:56:45;;;;;;;6.50;5.90;;;24.40;76.00;;;;;;5092690;28;20496;-85
2023/03/24 10:59:28;;;;;;;8.43;6.40;;;24.40;75.10;;;;;;5110708;28;20824;-85
2023/03/24 11:02:10;;;;;;;7.73;7.03;;;24.40;75.50;;;;;;5094575;28;20462;-86
2023/03/24 11:04:53;;;;;;;6.70;6.10;;;24.50;76.20;;;;;;5094152;28;20524;-86
2023/03/24 11:07:21;;;;;;;8.37;7.00;;;24.70;76.50;;;;;;5086971;28;20456;-86
2023/03/24 11:10:12;;;;;;;7.10;6.40;;;24.70;75.70;;;;;;5085355;28;20432;-90
2023/03/24 11:13:01;;;;;;;6.93;5.33;;;24.70;75.50;;;;;;5093081;28;20809;-86
2023/03/24 11:15:29;;;;;;;7.07;5.60;;;24.60;75.20;;;;;;5093630;28;20550;-89
2023/03/24 11:18:17;;;;;;;5.13;4.63;;;24.60;75.30;;;;;;5093213;28;20444;-89
2023/03/24 11:20:59;;;;;;;5.37;4.87;;;24.70;74.70;;;;;;5085341;28;20477;-88
2023/03/24 11:23:28;;;;;;;6.13;5.50;;;24.70;75.10;;;;;;5090964;28;20864;-90
2023/03/24 11:26:03;;;;;;;6.13;5.53;;;24.90;75.60;;;;;;5087179;28;20564;-86
2023/03/24 11:28:34;;;;;;;6.53;5.23;;;25.00;74.60;;;;;;5088605;28;20535;-87
2023/03/24 11:31:07;;;;;;;4.93;4.53;;;25.00;74.60;;;;;;5086775;28;20416;-85
2023/03/24 11:33:40;;;;;;;4.50;4.10;;;25.00;74.20;;;;;;5091257;28;20441;-86
2023/03/24 11:36:29;;;;;;;5.70;4.70;;;25.00;73.60;;;;;;5088252;28;20837;-91
2023/03/24 11:39:12;;;;;;;7.30;5.40;;;24.70;74.50;;;;;;5084448;28;20462;-85
2023/03/24 11:41:42;;;;;;;5.00;4.50;;;24.90;74.10;;;;;;5083881;28;20420;-89
2023/03/24 11:44:23;;;;;;;4.27;3.43;;;24.90;74.70;;;;;;5086235;28;20477;-89
2023/03/24 11:46:57;;;;;;;4.37;3.73;;;24.60;72.90;;;;;;5087536;28;20412;-86
2023/03/24 11:49:27;;;;;;;4.63;4.07;;;24.60;73.60;;;;;;5090202;28;20451;-86
2023/03/24 11:51:54;;;;;;;5.73;4.97;;;24.60;73.00;;;;;;5092051;28;20429;-86
2023/03/24 11:54:26;;;;;;;4.70;4.30;;;24.50;73.60;;;;;;5093555;28;20789;-86
2023/03/24 11:56:55;;;;;;;4.40;3.60;;;24.60;73.90;;;;;;5097039;28;20472;-86
2023/03/24 11:59:45;;;;;;;5.07;3.80;;;24.60;73.10;;;;;;5095987;28;20546;-90
2023/03/24 12:02:26;;;;;;;5.37;3.50;;;24.60;73.10;;;;;;5095431;28;20953;-86
2023/03/24 12:05:14;;;;;;;8.10;4.90;;;24.70;74.90;;;;;;5096912;28;20901;-90
2023/03/24 12:07:59;;;;;;;5.73;3.90;;;24.60;74.10;;;;;;5096711;28;20523;-85
2023/03/24 12:11:02;;;;;;;4.13;3.73;;;24.70;73.80;;;;;;5095928;28;20978;-89
2023/03/24 12:13:34;;;;;;;3.77;3.40;;;24.70;73.10;;;;;;5096079;28;20452;-89
2023/03/24 12:16:38;;;;;;;4.70;3.70;;;24.60;73.80;;;;;;5096084;28;20550;-89
2023/03/24 12:19:25;;;;;;;4.17;3.30;;;24.70;72.60;;;;;;5083614;28;20417;-87
2023/03/24 12:22:18;;;;;;;4.23;3.53;;;24.80;72.40;;;;;;5094569;28;20554;-90
2023/03/24 12:25:03;;;;;;;6.03;3.80;;;24.60;72.30;;;;;;5097011;28;20440;-87
2023/03/24 12:28:01;;;;;;;3.80;3.50;;;24.70;71.70;;;;;;5098094;28;20421;-87
2023/03/24 12:30:48;;;;;;;7.23;4.43;;;24.90;72.80;;;;;;5089354;28;20452;-87
2023/03/24 12:33:36;;;;;;;5.33;4.00;;;24.90;72.50;;;;;;5098171;28;20445;-85
2023/03/24 12:36:08;;;;;;;8.17;4.90;;;24.90;72.30;;;;;;5110024;28;21097;-87
2023/03/24 12:38:50;;;;;;;4.73;4.33;;;24.90;72.50;;;;;;5093166;28;20457;-89
2023/03/24 12:41:31;;;;;;;3.73;3.43;;;24.70;72.70;;;;;;5087117;28;20441;-89
2023/03/24 12:44:09;;;;;;;8.23;4.30;;;24.80;73.00;;;;;;5090253;28;20436;-91
2023/03/24 12:46:59;;;;;;;5.10;4.17;;;24.80;72.80;;;;;;5074241;28;20429;-90
2023/03/24 12:49:54;;;;;;;5.53;4.60;;;24.80;73.20;;;;;;5085053;28;20437;-86
2023/03/24 12:52:29;;;;;;;9.27;5.23;;;25.00;73.10;;;;;;5094370;28;20486;-89
2023/03/24 12:55:24;;;;;;;5.43;5.00;;;24.80;72.10;;;;;;5087133;28;20953;-89
2023/03/24 12:57:59;;;;;;;5.13;4.60;;;25.00;72.50;;;;;;5074790;28;20454;-88
2023/03/24 13:00:30;;;;;;;7.70;4.53;;;25.10;73.30;;;;;;5092794;28;20436;-86